Time;durP1;ratioP1;P1;durP2;ratioP2;P2;SDS_P1;SDS_P2;PMS_P1;PMS_P2;Temp;Humidity;BMP_temperature;BMP_pressure;BME280_temperature;BME280_humidity;BME280_pressure;Samples;Min_cycle;Max_cycle;Signal;HPM_P1;HPM_P2
2021/06/12 00:01:12;;;;;;;42.78;34.63;;;25.90;98.40;;;;;;5091072;28;20119;-81
2021/06/12 00:03:38;;;;;;;43.90;35.63;;;25.90;98.40;;;;;;5074491;28;20032;-80
2021/06/12 00:06:04;;;;;;;41.60;35.85;;;25.90;98.40;;;;;;5090756;28;20063;-80
2021/06/12 00:08:30;;;;;;;44.67;35.88;;;25.90;98.40;;;;;;5091532;28;20032;-80
2021/06/12 00:10:56;;;;;;;41.58;34.92;;;25.90;98.40;;;;;;5074504;28;20032;-80
2021/06/12 00:13:23;;;;;;;45.58;36.08;;;25.90;98.40;;;;;;5091028;28;20346;-80
2021/06/12 00:15:48;;;;;;;43.13;35.60;;;25.90;98.40;;;;;;5091255;28;20035;-81
2021/06/12 00:18:14;;;;;;;47.65;36.28;;;25.90;98.40;;;;;;5093356;28;20028;-81
2021/06/12 00:20:40;;;;;;;45.20;35.85;;;25.90;98.40;;;;;;5095001;28;20028;-81
2021/06/12 00:23:07;;;;;;;44.75;36.22;;;25.90;98.40;;;;;;5061044;28;20389;-82
2021/06/12 00:25:33;;;;;;;44.38;35.53;;;25.90;98.40;;;;;;5095885;28;20040;-82
2021/06/12 00:28:00;;;;;;;44.30;35.72;;;25.90;98.40;;;;;;5096140;28;20020;-81
2021/06/12 00:30:26;;;;;;;43.05;35.28;;;25.90;98.30;;;;;;5095032;28;20073;-81
2021/06/12 00:32:53;;;;;;;42.97;33.78;;;25.90;98.40;;;;;;5078139;28;20085;-81
2021/06/12 00:35:19;;;;;;;43.55;35.30;;;25.90;98.40;;;;;;5095589;28;20027;-81
2021/06/12 00:37:45;;;;;;;41.75;34.20;;;25.90;98.30;;;;;;5077970;28;20032;-81
2021/06/12 00:40:13;;;;;;;42.63;35.13;;;25.90;98.30;;;;;;5095682;28;20073;-82
2021/06/12 00:42:39;;;;;;;41.30;34.63;;;25.90;98.20;;;;;;5094580;28;20088;-81
2021/06/12 00:45:13;;;;;;;38.33;32.22;;;25.90;98.20;;;;;;5095595;28;20053;-81
2021/06/12 00:47:40;;;;;;;40.72;32.42;;;25.90;98.20;;;;;;5088706;28;20040;-81
2021/06/12 00:50:07;;;;;;;38.85;32.47;;;25.90;98.20;;;;;;5095456;28;20047;-82
2021/06/12 00:52:34;;;;;;;36.28;30.35;;;25.90;98.30;;;;;;5094413;28;20039;-81
2021/06/12 00:55:00;;;;;;;38.30;31.98;;;25.90;98.20;;;;;;5077433;28;20044;-81
2021/06/12 00:57:26;;;;;;;40.72;32.92;;;25.90;98.20;;;;;;5093803;28;20119;-81
2021/06/12 00:59:51;;;;;;;37.35;31.50;;;25.90;98.20;;;;;;5094325;28;20077;-82
2021/06/12 01:02:17;;;;;;;37.25;30.38;;;25.90;98.20;;;;;;5077111;28;20036;-81
2021/06/12 01:04:43;;;;;;;36.03;29.95;;;25.80;98.10;;;;;;5094127;28;20032;-81
2021/06/12 01:07:09;;;;;;;36.30;30.52;;;25.90;98.20;;;;;;5095014;28;20470;-81
2021/06/12 01:09:35;;;;;;;35.90;29.58;;;25.90;98.20;;;;;;5095163;28;20020;-82
2021/06/12 01:12:25;;;;;;;37.70;29.63;;;25.90;98.20;;;;;;5094115;28;20024;-82
2021/06/12 01:14:56;;;;;;;36.35;29.60;;;25.90;98.20;;;;;;5095031;28;20073;-81
2021/06/12 01:17:27;;;;;;;37.30;30.02;;;25.90;98.20;;;;;;5095048;28;20539;-81
2021/06/12 01:20:08;;;;;;;35.22;29.10;;;25.90;98.20;;;;;;5095395;28;20034;-81
2021/06/12 01:22:34;;;;;;;32.92;27.10;;;25.90;98.20;;;;;;5095187;28;20111;-81
2021/06/12 01:25:04;;;;;;;33.95;27.88;;;25.80;98.10;;;;;;5094992;28;20103;-80
2021/06/12 01:27:49;;;;;;;32.83;27.83;;;25.90;98.20;;;;;;5093516;28;20031;-80
2021/06/12 01:30:22;;;;;;;33.72;28.23;;;25.90;98.10;;;;;;5094166;28;20021;-80
2021/06/12 01:32:52;;;;;;;32.35;26.65;;;25.90;98.10;;;;;;5095005;28;20028;-81
2021/06/12 01:35:29;;;;;;;29.67;25.23;;;25.80;98.10;;;;;;5094589;28;20036;-81
2021/06/12 01:37:56;;;;;;;31.15;26.10;;;25.80;98.00;;;;;;5093954;28;20028;-81
2021/06/12 01:40:25;;;;;;;31.58;25.95;;;25.80;98.00;;;;;;5076148;28;20048;-81
2021/06/12 01:42:52;;;;;;;30.35;24.38;;;25.80;98.00;;;;;;5093528;28;20035;-81
2021/06/12 01:45:20;;;;;;;31.38;25.17;;;25.80;98.00;;;;;;5076186;28;20450;-81
2021/06/12 01:47:46;;;;;;;29.38;24.67;;;25.80;98.00;;;;;;5077139;28;20036;-81
2021/06/12 01:50:14;;;;;;;29.10;23.77;;;25.80;97.90;;;;;;5059669;28;20048;-81
2021/06/12 01:52:43;;;;;;;25.58;21.98;;;25.80;97.90;;;;;;5092947;28;20032;-81
2021/06/12 01:55:11;;;;;;;26.77;22.77;;;25.80;97.90;;;;;;5094236;28;20097;-82
2021/06/12 01:57:41;;;;;;;25.77;22.08;;;25.80;97.90;;;;;;5093962;28;20035;-81
2021/06/12 02:00:07;;;;;;;25.17;21.00;;;25.90;97.90;;;;;;5094543;28;20024;-80
2021/06/12 02:02:33;;;;;;;26.00;22.55;;;25.80;97.90;;;;;;5094861;28;20035;-81
2021/06/12 02:05:01;;;;;;;26.88;21.27;;;25.80;97.90;;;;;;5093005;28;20350;-81
2021/06/12 02:07:29;;;;;;;26.15;21.17;;;25.80;97.90;;;;;;5093809;28;20086;-81
2021/06/12 02:09:55;;;;;;;24.67;20.77;;;25.80;98.00;;;;;;5094017;28;20466;-81
2021/06/12 02:12:21;;;;;;;25.95;21.05;;;25.80;98.00;;;;;;5092651;28;20031;-81
2021/06/12 02:14:49;;;;;;;26.40;20.77;;;25.80;97.90;;;;;;5076078;28;20035;-81
2021/06/12 02:17:16;;;;;;;23.95;19.80;;;25.80;97.90;;;;;;5093635;28;20081;-81
2021/06/12 02:19:42;;;;;;;23.83;19.70;;;25.80;97.90;;;;;;5092811;28;20045;-82
2021/06/12 02:22:09;;;;;;;23.52;19.65;;;25.90;97.90;;;;;;5075894;28;20465;-81
2021/06/12 02:24:35;;;;;;;25.48;19.30;;;25.80;97.90;;;;;;5093764;28;20036;-81
2021/06/12 02:27:02;;;;;;;21.50;18.05;;;25.80;97.90;;;;;;5093697;28;20059;-82
2021/06/12 02:29:30;;;;;;;22.98;18.40;;;25.80;97.90;;;;;;5092613;28;20032;-81
2021/06/12 02:32:06;;;;;;;21.48;17.50;;;25.80;97.90;;;;;;5092568;28;20051;-81
2021/06/12 02:34:33;;;;;;;22.92;17.63;;;25.80;97.90;;;;;;5092284;28;20028;-81
2021/06/12 02:37:00;;;;;;;21.98;17.65;;;25.80;97.90;;;;;;5092487;28;20020;-81
2021/06/12 02:39:26;;;;;;;21.77;17.60;;;25.80;97.90;;;;;;5092267;28;20060;-82
2021/06/12 02:41:52;;;;;;;20.08;16.92;;;25.80;97.90;;;;;;5091644;28;20489;-81
2021/06/12 02:44:17;;;;;;;18.92;15.43;;;25.80;97.90;;;;;;5092992;28;20036;-81
2021/06/12 02:46:45;;;;;;;19.02;16.13;;;25.80;97.80;;;;;;5075458;28;20456;-81
2021/06/12 02:49:13;;;;;;;16.55;14.45;;;25.80;97.80;;;;;;5092228;28;20028;-81
2021/06/12 02:51:45;;;;;;;20.30;16.38;;;25.80;97.90;;;;;;5093608;28;20050;-81
2021/06/12 02:54:12;;;;;;;17.50;14.77;;;25.80;97.80;;;;;;5092303;28;20423;-81
2021/06/12 02:56:40;;;;;;;16.83;14.30;;;25.80;97.80;;;;;;5075434;28;20032;-81
2021/06/12 02:59:12;;;;;;;15.93;13.73;;;25.80;97.80;;;;;;5075590;28;20028;-81
2021/06/12 03:01:41;;;;;;;16.95;14.05;;;25.80;97.80;;;;;;5091545;28;20028;-81
2021/06/12 03:04:12;;;;;;;16.48;14.02;;;25.80;97.80;;;;;;5092282;28;20036;-81
2021/06/12 03:06:39;;;;;;;16.33;13.55;;;25.80;97.80;;;;;;5092035;28;20529;-81
2021/06/12 03:09:06;;;;;;;15.13;12.48;;;25.80;97.80;;;;;;5076017;28;20059;-81
2021/06/12 03:11:33;;;;;;;15.93;12.95;;;25.80;97.80;;;;;;5074706;28;20035;-81
2021/06/12 03:13:59;;;;;;;14.35;12.75;;;25.80;97.70;;;;;;5091826;28;20489;-81
2021/06/12 03:16:26;;;;;;;15.70;12.70;;;25.80;97.70;;;;;;5074581;28;20035;-81
2021/06/12 03:18:53;;;;;;;15.25;12.75;;;25.80;97.70;;;;;;5093293;28;20028;-81
2021/06/12 03:21:27;;;;;;;14.85;12.38;;;25.80;97.70;;;;;;5092548;28;20074;-81
2021/06/12 03:23:55;;;;;;;14.70;12.07;;;25.80;97.60;;;;;;5091974;28;20024;-80
2021/06/12 03:26:22;;;;;;;14.88;11.75;;;25.80;97.70;;;;;;5091367;28;20031;-80
2021/06/12 03:28:49;;;;;;;14.75;11.45;;;25.80;97.70;;;;;;5091505;28;20473;-80
2021/06/12 03:31:15;;;;;;;13.50;10.80;;;25.80;97.60;;;;;;5091409;28;20024;-80
2021/06/12 03:33:41;;;;;;;14.05;11.52;;;25.80;97.60;;;;;;5091563;28;20055;-80
2021/06/12 03:36:09;;;;;;;12.32;10.57;;;25.80;97.60;;;;;;5091906;28;20063;-79
2021/06/12 03:38:35;;;;;;;11.93;10.63;;;25.80;97.60;;;;;;5091425;28;20047;-80
2021/06/12 03:41:01;;;;;;;13.85;10.50;;;25.80;97.60;;;;;;5093032;28;20110;-80
2021/06/12 03:43:28;;;;;;;12.90;10.38;;;25.80;97.50;;;;;;5092416;28;20024;-81
2021/06/12 03:45:56;;;;;;;12.90;10.68;;;25.80;97.60;;;;;;5091706;28;20036;-80
2021/06/12 03:48:23;;;;;;;12.23;10.25;;;25.80;97.60;;;;;;5074844;28;20024;-81
2021/06/12 03:50:51;;;;;;;12.13;9.98;;;25.80;97.60;;;;;;5091702;28;20063;-80
2021/06/12 03:53:17;;;;;;;12.30;10.27;;;25.80;97.80;;;;;;5094397;28;20027;-81
2021/06/12 03:55:43;;;;;;;11.68;9.18;;;25.80;97.60;;;;;;5095484;28;20032;-81
2021/06/12 03:58:10;;;;;;;13.27;9.35;;;25.80;97.50;;;;;;5078742;28;20114;-81
2021/06/12 04:00:35;;;;;;;10.18;9.02;;;25.80;97.50;;;;;;5095359;28;20035;-81
2021/06/12 04:03:01;;;;;;;10.95;8.65;;;25.80;97.50;;;;;;5078896;28;20024;-81
2021/06/12 04:05:26;;;;;;;10.63;9.02;;;25.80;97.50;;;;;;5078257;28;20035;-81
2021/06/12 04:07:52;;;;;;;11.35;9.02;;;25.80;97.50;;;;;;5094945;28;20048;-81
2021/06/12 04:10:18;;;;;;;9.70;8.60;;;25.80;97.50;;;;;;5078509;28;20035;-81
2021/06/12 04:12:44;;;;;;;9.68;8.18;;;25.80;97.50;;;;;;5096236;28;20028;-81
2021/06/12 04:15:10;;;;;;;10.00;8.77;;;25.80;97.50;;;;;;5095172;28;20394;-81
2021/06/12 04:17:37;;;;;;;10.60;8.40;;;25.80;97.50;;;;;;5078162;28;20032;-81
2021/06/12 04:20:04;;;;;;;9.50;8.07;;;25.80;97.40;;;;;;5096253;28;20024;-81
2021/06/12 04:22:30;;;;;;;9.43;8.05;;;25.80;97.40;;;;;;5095017;28;20115;-81
2021/06/12 04:24:55;;;;;;;8.77;7.30;;;25.80;97.50;;;;;;5077948;28;20537;-81
2021/06/12 04:27:21;;;;;;;9.93;8.13;;;25.70;97.40;;;;;;5094659;28;20520;-83
2021/06/12 04:29:47;;;;;;;8.63;7.72;;;25.70;97.40;;;;;;5095948;28;20059;-81
2021/06/12 04:32:13;;;;;;;8.77;7.25;;;25.80;97.40;;;;;;5095021;28;20466;-81
2021/06/12 04:34:38;;;;;;;8.50;6.93;;;25.70;97.40;;;;;;5094603;28;20032;-81
2021/06/12 04:37:04;;;;;;;9.25;7.30;;;25.80;97.40;;;;;;5061553;28;20486;-81
2021/06/12 04:39:31;;;;;;;8.55;7.63;;;25.80;97.40;;;;;;5093905;28;20032;-81
2021/06/12 04:41:57;;;;;;;8.50;6.88;;;25.80;97.40;;;;;;5094814;28;20036;-80
2021/06/12 04:44:22;;;;;;;7.80;5.80;;;25.70;97.30;;;;;;5094405;28;20123;-82
2021/06/12 04:46:48;;;;;;;7.50;6.40;;;25.70;97.30;;;;;;5095807;28;20580;-80
2021/06/12 04:49:14;;;;;;;9.93;6.72;;;25.80;97.30;;;;;;5094367;28;20429;-80
2021/06/12 04:51:40;;;;;;;7.53;6.13;;;25.70;97.30;;;;;;5077425;28;20028;-80
2021/06/12 04:54:05;;;;;;;7.00;6.13;;;25.70;97.30;;;;;;5095402;28;20032;-80
2021/06/12 04:56:32;;;;;;;7.63;6.45;;;25.80;97.30;;;;;;5094176;28;20032;-80
2021/06/12 04:58:57;;;;;;;7.40;6.22;;;25.80;97.30;;;;;;5094412;28;20024;-79
2021/06/12 05:01:23;;;;;;;6.70;5.97;;;25.70;97.20;;;;;;5094783;28;20108;-80
2021/06/12 05:03:49;;;;;;;6.95;5.88;;;25.80;97.40;;;;;;5076857;28;20051;-80
2021/06/12 05:06:14;;;;;;;6.07;5.47;;;25.70;97.10;;;;;;5076344;28;20390;-80
2021/06/12 05:08:40;;;;;;;6.50;5.68;;;25.70;97.10;;;;;;5076871;28;20468;-80
2021/06/12 05:11:05;;;;;;;6.90;5.57;;;25.70;97.00;;;;;;5093993;28;20089;-80
2021/06/12 05:13:33;;;;;;;5.95;5.30;;;25.80;97.00;;;;;;5093832;28;20115;-81
2021/06/12 05:15:59;;;;;;;7.18;5.95;;;25.80;97.10;;;;;;5094171;28;20032;-81
2021/06/12 05:18:32;;;;;;;6.03;5.10;;;25.80;97.00;;;;;;5094019;28;20028;-81
2021/06/12 05:20:57;;;;;;;6.53;5.63;;;25.70;97.00;;;;;;5078218;28;20132;-81
2021/06/12 05:23:23;;;;;;;6.57;5.55;;;25.80;97.00;;;;;;5076882;28;20024;-81
2021/06/12 05:25:49;;;;;;;5.20;4.50;;;25.80;97.00;;;;;;5076454;28;20036;-81
2021/06/12 05:28:14;;;;;;;6.30;5.35;;;25.80;96.90;;;;;;5076760;28;20051;-81
2021/06/12 05:30:40;;;;;;;5.55;4.72;;;25.80;96.90;;;;;;5076822;28;20489;-82
2021/06/12 05:33:06;;;;;;;5.32;4.75;;;25.80;96.80;;;;;;5060408;28;20024;-82
2021/06/12 05:35:31;;;;;;;4.65;4.15;;;25.80;96.80;;;;;;5093047;28;20032;-82
2021/06/12 05:37:57;;;;;;;5.07;4.38;;;25.80;96.70;;;;;;5077090;28;20139;-81
2021/06/12 05:40:22;;;;;;;5.68;4.40;;;25.80;96.70;;;;;;5093774;28;20024;-81
2021/06/12 05:42:48;;;;;;;5.38;4.88;;;25.80;96.60;;;;;;5093087;28;20047;-82
2021/06/12 05:45:14;;;;;;;4.90;4.20;;;25.80;96.60;;;;;;5076709;28;20049;-82
2021/06/12 05:47:39;;;;;;;5.47;4.60;;;25.80;96.50;;;;;;5093486;28;20541;-81
2021/06/12 05:50:06;;;;;;;6.15;4.50;;;25.80;96.50;;;;;;5074715;28;20028;-82
2021/06/12 05:52:32;;;;;;;6.18;5.32;;;25.80;96.50;;;;;;5093946;28;20020;-82
2021/06/12 05:54:57;;;;;;;5.40;4.55;;;25.80;96.40;;;;;;5059427;28;20139;-81
2021/06/12 05:57:23;;;;;;;6.43;5.30;;;25.80;96.40;;;;;;5059755;28;20028;-81
2021/06/12 05:59:49;;;;;;;5.55;4.80;;;25.80;96.40;;;;;;5093042;28;20169;-81
2021/06/12 06:02:14;;;;;;;7.50;6.07;;;25.80;96.30;;;;;;5076013;28;20492;-81
2021/06/12 06:04:40;;;;;;;7.82;6.50;;;25.80;96.30;;;;;;5075841;28;20036;-81
2021/06/12 06:07:06;;;;;;;8.75;7.63;;;25.80;96.30;;;;;;5093932;28;20143;-81
2021/06/12 06:09:31;;;;;;;9.90;8.25;;;25.80;96.20;;;;;;5092608;28;20031;-82
2021/06/12 06:11:57;;;;;;;10.48;8.70;;;25.80;96.20;;;;;;5092572;28;20050;-81
2021/06/12 06:14:23;;;;;;;11.80;9.10;;;25.80;96.20;;;;;;5059460;28;20473;-81
2021/06/12 06:16:48;;;;;;;11.25;8.85;;;25.90;96.20;;;;;;5092522;28;20078;-81
2021/06/12 06:19:15;;;;;;;12.07;10.05;;;25.80;96.20;;;;;;5093892;28;20080;-81
2021/06/12 06:21:40;;;;;;;11.90;9.63;;;25.80;96.20;;;;;;5092532;28;20032;-81
2021/06/12 06:24:06;;;;;;;11.43;9.70;;;25.80;96.20;;;;;;5075746;28;20428;-81
2021/06/12 06:26:32;;;;;;;10.30;9.20;;;25.80;96.20;;;;;;5058896;28;20489;-83
2021/06/12 06:28:58;;;;;;;11.10;9.27;;;25.80;96.20;;;;;;5092818;28;20036;-81
2021/06/12 06:31:23;;;;;;;10.18;8.85;;;25.80;96.10;;;;;;5076232;28;20036;-82
2021/06/12 06:33:49;;;;;;;10.50;8.85;;;25.80;96.00;;;;;;5092225;28;20041;-82
2021/06/12 06:36:15;;;;;;;10.27;8.48;;;25.80;95.90;;;;;;5092697;28;20024;-81
2021/06/12 06:38:41;;;;;;;9.95;7.43;;;25.80;95.90;;;;;;5075275;28;20025;-81
2021/06/12 06:41:07;;;;;;;9.85;7.65;;;25.80;95.80;;;;;;5075634;28;20028;-81
2021/06/12 06:43:33;;;;;;;10.35;7.70;;;25.80;95.80;;;;;;5093549;28;20036;-81
2021/06/12 06:45:58;;;;;;;10.98;7.82;;;25.80;95.70;;;;;;5091514;28;20043;-81
2021/06/12 06:48:24;;;;;;;8.70;6.60;;;25.80;95.70;;;;;;5058886;28;20444;-82
2021/06/12 06:50:49;;;;;;;8.95;7.20;;;25.80;95.70;;;;;;5075118;28;20028;-81
2021/06/12 06:53:16;;;;;;;8.95;6.55;;;25.80;95.70;;;;;;5093580;28;20515;-82
2021/06/12 06:55:42;;;;;;;7.30;6.47;;;25.80;95.70;;;;;;5092023;28;20028;-82
2021/06/12 06:58:08;;;;;;;7.78;5.97;;;25.80;95.60;;;;;;5093275;28;20047;-82
2021/06/12 07:00:33;;;;;;;8.95;6.40;;;25.80;95.60;;;;;;5091712;28;20028;-82
2021/06/12 07:03:02;;;;;;;8.10;6.43;;;25.80;95.50;;;;;;5074704;28;20036;-82
2021/06/12 07:05:27;;;;;;;6.88;5.93;;;25.80;95.40;;;;;;5091997;28;20084;-82
2021/06/12 07:07:53;;;;;;;8.07;5.57;;;25.80;95.30;;;;;;5092492;28;20142;-82
2021/06/12 07:10:19;;;;;;;7.18;6.18;;;25.80;95.10;;;;;;5092153;28;20121;-81
2021/06/12 07:12:45;;;;;;;7.07;5.93;;;25.80;95.00;;;;;;5092638;28;20051;-81
2021/06/12 07:15:11;;;;;;;7.03;5.38;;;25.80;95.00;;;;;;5093135;28;20024;-81
2021/06/12 07:17:37;;;;;;;5.50;4.60;;;25.80;95.00;;;;;;5093194;28;20024;-83
2021/06/12 07:20:05;;;;;;;6.25;4.85;;;25.80;95.10;;;;;;5091664;28;20028;-81
2021/06/12 07:22:30;;;;;;;5.57;4.68;;;25.80;95.10;;;;;;5093121;28;20129;-80
2021/06/12 07:24:56;;;;;;;7.35;5.25;;;25.80;95.10;;;;;;5057973;28;20555;-80
2021/06/12 07:27:22;;;;;;;5.55;4.40;;;25.80;95.10;;;;;;5091221;28;20032;-81
2021/06/12 07:29:48;;;;;;;7.28;4.43;;;25.90;95.20;;;;;;5091099;28;20032;-80
2021/06/12 07:32:14;;;;;;;5.97;4.72;;;25.90;95.20;;;;;;5091659;28;20028;-81
2021/06/12 07:34:40;;;;;;;6.35;4.70;;;25.90;95.20;;;;;;5074475;28;20028;-82
2021/06/12 07:37:05;;;;;;;6.45;4.80;;;25.90;95.10;;;;;;5091625;28;20055;-81
2021/06/12 07:39:31;;;;;;;6.05;4.93;;;25.90;95.10;;;;;;5091467;28;20482;-81
2021/06/12 07:41:57;;;;;;;6.15;4.68;;;25.90;95.00;;;;;;5074355;28;20032;-82
2021/06/12 07:44:23;;;;;;;5.55;4.63;;;25.90;95.00;;;;;;5091224;28;20036;-83
2021/06/12 07:46:48;;;;;;;5.30;4.40;;;25.90;95.00;;;;;;5090166;28;20024;-82
2021/06/12 07:49:14;;;;;;;7.40;4.82;;;25.90;95.00;;;;;;5091609;28;20405;-82
2021/06/12 07:51:41;;;;;;;6.40;5.35;;;25.90;95.00;;;;;;5091065;28;20028;-84
2021/06/12 07:54:07;;;;;;;5.20;4.68;;;25.90;95.00;;;;;;5091457;28;20024;-82
2021/06/12 07:56:33;;;;;;;6.97;5.45;;;25.90;95.00;;;;;;5074493;28;20051;-80
2021/06/12 07:58:59;;;;;;;5.18;4.60;;;25.90;94.90;;;;;;5091107;28;20060;-81
2021/06/12 08:01:26;;;;;;;5.82;5.32;;;25.90;94.90;;;;;;5074231;28;20371;-81
2021/06/12 08:03:51;;;;;;;7.55;6.75;;;25.90;94.80;;;;;;5090870;28;20466;-80
2021/06/12 08:06:17;;;;;;;8.02;7.22;;;25.90;94.80;;;;;;5090971;28;20048;-80
2021/06/12 08:08:43;;;;;;;8.55;7.38;;;25.90;94.80;;;;;;5092453;28;20036;-81
2021/06/12 08:11:08;;;;;;;9.68;7.60;;;25.90;94.80;;;;;;5092560;28;20028;-83
2021/06/12 08:13:34;;;;;;;8.07;7.10;;;25.90;94.80;;;;;;5089100;28;20542;-81
2021/06/12 08:16:00;;;;;;;8.60;7.22;;;26.00;94.80;;;;;;5072430;28;20113;-81
2021/06/12 08:18:25;;;;;;;8.25;7.32;;;25.90;94.70;;;;;;5089991;28;20457;-80
2021/06/12 08:20:52;;;;;;;9.30;7.60;;;26.00;94.70;;;;;;5074093;28;20096;-81
2021/06/12 08:23:17;;;;;;;7.70;6.88;;;26.00;94.70;;;;;;5074050;28;20435;-81
2021/06/12 08:25:44;;;;;;;8.57;7.05;;;26.00;94.70;;;;;;5091227;28;20120;-83
2021/06/12 08:28:09;;;;;;;8.82;7.32;;;26.00;94.70;;;;;;5091232;28;20032;-81
2021/06/12 08:30:36;;;;;;;8.30;6.90;;;26.00;94.70;;;;;;5090825;28;20492;-81
2021/06/12 08:33:06;;;;;;;8.25;7.28;;;26.00;94.70;;;;;;5091855;28;20020;-82
2021/06/12 08:35:32;;;;;;;7.57;6.65;;;26.00;94.70;;;;;;5091173;28;20488;-82
2021/06/12 08:37:58;;;;;;;7.05;6.30;;;26.00;94.70;;;;;;5092057;28;20162;-82
2021/06/12 08:40:25;;;;;;;6.95;6.00;;;26.00;94.90;;;;;;5092685;28;20111;-82
2021/06/12 08:42:51;;;;;;;7.85;6.80;;;26.00;94.60;;;;;;5095439;28;20106;-81
2021/06/12 08:45:19;;;;;;;7.10;6.40;;;26.00;94.60;;;;;;5095927;28;20082;-81
2021/06/12 08:47:45;;;;;;;6.57;5.88;;;26.00;94.60;;;;;;5095993;28;20027;-82
2021/06/12 08:50:12;;;;;;;7.63;6.30;;;26.00;94.60;;;;;;5094462;28;20032;-81
2021/06/12 08:52:39;;;;;;;6.22;5.47;;;26.10;94.60;;;;;;5075004;28;20026;-81
2021/06/12 08:55:07;;;;;;;7.15;5.45;;;26.00;94.40;;;;;;5095503;28;20060;-81
2021/06/12 08:57:32;;;;;;;6.93;5.80;;;26.00;94.30;;;;;;5094256;28;20035;-81
2021/06/12 08:59:58;;;;;;;6.82;5.85;;;26.00;94.30;;;;;;5077071;28;20031;-81
2021/06/12 09:02:24;;;;;;;7.22;5.35;;;26.00;94.20;;;;;;5094600;28;20063;-81
2021/06/12 09:04:52;;;;;;;8.40;5.55;;;26.00;94.20;;;;;;5094234;28;20036;-82
2021/06/12 09:07:24;;;;;;;8.32;5.40;;;26.00;94.20;;;;;;5095183;28;20520;-81
2021/06/12 09:09:51;;;;;;;6.28;5.38;;;26.10;94.20;;;;;;5093838;28;20031;-82
2021/06/12 09:12:18;;;;;;;5.30;4.40;;;26.00;94.20;;;;;;5095500;28;20021;-81
2021/06/12 09:15:10;;;;;;;5.43;4.90;;;26.10;94.30;;;;;;5094177;28;20442;-81
2021/06/12 09:17:38;;;;;;;4.25;3.72;;;26.10;94.30;;;;;;5077082;28;20028;-81
2021/06/12 09:20:04;;;;;;;4.78;4.32;;;26.10;94.30;;;;;;5094750;28;20039;-81
2021/06/12 09:22:29;;;;;;;4.63;3.90;;;26.10;94.30;;;;;;5077108;28;20032;-82
2021/06/12 09:24:55;;;;;;;4.80;3.88;;;26.10;94.30;;;;;;5094909;28;20120;-82
2021/06/12 09:27:21;;;;;;;4.28;3.88;;;26.10;94.30;;;;;;5092224;28;20399;-81
2021/06/12 09:29:51;;;;;;;5.00;3.90;;;26.10;94.20;;;;;;5077003;28;20462;-81
2021/06/12 09:32:17;;;;;;;4.15;3.53;;;26.10;94.10;;;;;;5093837;28;20024;-81
2021/06/12 09:34:44;;;;;;;4.65;3.80;;;26.20;94.10;;;;;;5094951;28;20473;-82
2021/06/12 09:37:19;;;;;;;4.60;3.70;;;26.10;94.00;;;;;;5076709;28;20624;-81
2021/06/12 09:40:10;;;;;;;4.07;3.35;;;26.10;93.80;;;;;;5094712;28;20024;-82
2021/06/12 09:42:49;;;;;;;4.40;3.80;;;26.10;93.80;;;;;;5094821;28;20069;-82
2021/06/12 09:45:26;;;;;;;4.00;3.47;;;26.10;93.70;;;;;;5093461;28;20081;-81
2021/06/12 09:48:06;;;;;;;4.70;3.70;;;26.10;93.60;;;;;;5095409;28;20024;-82
2021/06/12 09:50:32;;;;;;;4.25;3.30;;;26.10;93.60;;;;;;5093305;28;20067;-82
2021/06/12 09:52:57;;;;;;;3.92;3.15;;;26.10;93.60;;;;;;5076111;28;20520;-82
2021/06/12 09:55:32;;;;;;;4.80;3.65;;;26.10;93.50;;;;;;5076770;28;20081;-81
2021/06/12 09:58:00;;;;;;;3.63;2.92;;;26.10;93.40;;;;;;5086368;28;20114;-82
2021/06/12 10:00:45;;;;;;;3.50;3.00;;;26.10;93.40;;;;;;5093482;28;20028;-82
2021/06/12 10:03:22;;;;;;;3.28;2.78;;;26.10;93.40;;;;;;5093269;28;20031;-81
2021/06/12 10:06:10;;;;;;;3.38;2.75;;;26.10;93.50;;;;;;5093090;28;20062;-81
2021/06/12 10:08:35;;;;;;;3.00;2.55;;;26.10;93.50;;;;;;5092795;28;20048;-81
2021/06/12 10:11:02;;;;;;;2.65;2.22;;;26.10;93.60;;;;;;5076103;28;20036;-81
2021/06/12 10:13:28;;;;;;;2.50;2.13;;;26.10;93.60;;;;;;5076383;28;20071;-81
2021/06/12 10:15:54;;;;;;;2.60;2.15;;;26.10;93.70;;;;;;5094307;28;20035;-83
2021/06/12 10:18:21;;;;;;;3.72;2.47;;;26.10;93.70;;;;;;5075857;28;20028;-81
2021/06/12 10:20:48;;;;;;;2.47;1.85;;;26.10;93.80;;;;;;5094284;28;20115;-81
2021/06/12 10:23:14;;;;;;;2.42;2.15;;;26.20;93.80;;;;;;5075519;28;20028;-81
2021/06/12 10:25:40;;;;;;;2.80;2.40;;;26.20;93.80;;;;;;5075194;28;20048;-81
2021/06/12 10:28:06;;;;;;;3.22;2.22;;;26.20;93.80;;;;;;5075659;28;20046;-81
2021/06/12 10:30:32;;;;;;;2.50;2.17;;;26.20;93.90;;;;;;5093718;28;20028;-81
2021/06/12 10:32:59;;;;;;;2.17;1.90;;;26.20;93.90;;;;;;5092153;28;20035;-81
2021/06/12 10:35:26;;;;;;;2.55;1.80;;;26.20;93.90;;;;;;5092364;28;20076;-81
2021/06/12 10:37:57;;;;;;;1.98;1.63;;;26.20;93.80;;;;;;5087048;28;20053;-81
2021/06/12 10:40:47;;;;;;;1.98;1.73;;;26.20;93.80;;;;;;5073303;28;20035;-81
2021/06/12 10:43:21;;;;;;;2.40;1.98;;;26.20;93.80;;;;;;5071768;28;20027;-81
2021/06/12 10:46:07;;;;;;;2.23;2.03;;;26.20;93.80;;;;;;5055508;28;20037;-80
2021/06/12 10:48:59;;;;;;;1.40;1.30;;;26.20;93.80;;;;;;5054887;28;20036;-81
2021/06/12 10:51:25;;;;;;;2.10;1.80;;;26.20;93.80;;;;;;5073679;28;20043;-82
2021/06/12 10:54:09;;;;;;;2.40;1.73;;;26.20;93.80;;;;;;5073302;28;20352;-81
2021/06/12 10:56:40;;;;;;;2.30;1.70;;;26.20;93.70;;;;;;5071904;28;20024;-81
2021/06/12 10:59:08;;;;;;;2.25;1.88;;;26.20;93.60;;;;;;5072731;28;20378;-82
2021/06/12 11:01:33;;;;;;;1.98;1.52;;;26.20;93.50;;;;;;5072284;28;20099;-81
2021/06/12 11:06:52;;;;;;;1.95;1.75;;;26.20;93.50;;;;;;5074416;28;20051;-82
2021/06/12 11:09:34;;;;;;;2.00;1.77;;;26.20;93.60;;;;;;5074847;28;20059;-81
2021/06/12 11:12:27;;;;;;;2.97;2.05;;;26.20;93.50;;;;;;5074481;28;20047;-83
2021/06/12 11:15:01;;;;;;;1.95;1.70;;;26.20;93.30;;;;;;5082458;28;20129;-81
2021/06/12 11:17:26;;;;;;;;;;;26.20;93.30;;;;;;5093289;28;20043;-81
2021/06/12 11:20:14;;;;;;;2.42;1.90;;;26.20;93.20;;;;;;5075069;28;20358;-81
2021/06/12 11:23:01;;;;;;;1.83;1.70;;;26.20;93.30;;;;;;5058719;28;20394;-81
2021/06/12 11:25:28;;;;;;;2.38;1.85;;;26.20;93.30;;;;;;5092719;28;20491;-81
2021/06/12 11:28:14;;;;;;;2.60;2.00;;;26.20;93.40;;;;;;5074869;28;20024;-81
2021/06/12 11:30:40;;;;;;;1.90;1.63;;;26.20;93.40;;;;;;5074394;28;20031;-81
2021/06/12 11:33:06;;;;;;;1.80;1.70;;;26.20;93.40;;;;;;5074697;28;20030;-82
2021/06/12 11:35:38;;;;;;;1.58;1.48;;;26.20;93.40;;;;;;5093012;28;20425;-81
2021/06/12 11:38:14;;;;;;;2.05;1.50;;;26.20;93.40;;;;;;5092616;28;20030;-82
2021/06/12 11:41:09;;;;;;;1.40;1.30;;;26.20;93.40;;;;;;5074950;28;20020;-82
2021/06/12 11:43:43;;;;;;;1.50;1.40;;;26.20;93.40;;;;;;5074099;28;20044;-81
2021/06/12 11:46:13;;;;;;;1.55;1.13;;;26.20;93.40;;;;;;5092421;28;20036;-81
2021/06/12 11:48:41;;;;;;;1.55;1.45;;;26.20;93.40;;;;;;5074749;28;20032;-81
2021/06/12 11:51:16;;;;;;;1.90;1.42;;;26.20;93.40;;;;;;5092548;28;20069;-81
2021/06/12 11:53:44;;;;;;;1.33;1.23;;;26.30;93.30;;;;;;5092589;28;20031;-81
2021/06/12 11:56:10;;;;;;;1.63;1.40;;;26.30;93.30;;;;;;5074302;28;20484;-81
2021/06/12 11:58:58;;;;;;;1.73;1.35;;;26.30;93.30;;;;;;5074639;28;20048;-81
2021/06/12 12:01:42;;;;;;;2.35;1.83;;;26.30;93.10;;;;;;5091893;28;20066;-81
2021/06/12 12:04:08;;;;;;;1.65;1.50;;;26.30;92.90;;;;;;5092191;28;20035;-81
2021/06/12 12:06:34;;;;;;;2.28;1.88;;;26.20;92.70;;;;;;5092181;28;20098;-81
2021/06/12 12:09:01;;;;;;;1.75;1.40;;;26.20;92.60;;;;;;5074555;28;20111;-80
2021/06/12 12:11:27;;;;;;;2.13;1.70;;;26.20;92.50;;;;;;5074402;28;20032;-80
2021/06/12 12:14:06;;;;;;;1.63;1.17;;;26.20;92.50;;;;;;5075661;28;20028;-81
2021/06/12 12:16:32;;;;;;;1.50;1.30;;;26.20;92.60;;;;;;5078222;28;20119;-82
2021/06/12 12:19:00;;;;;;;1.55;1.45;;;26.20;92.70;;;;;;5078211;28;20108;-81
2021/06/12 12:21:39;;;;;;;1.70;1.52;;;26.20;92.80;;;;;;5077727;28;20147;-81
2021/06/12 12:24:12;;;;;;;1.70;1.40;;;26.20;92.80;;;;;;5078274;28;20020;-81
2021/06/12 12:26:50;;;;;;;1.88;1.40;;;26.20;92.70;;;;;;5096006;28;20032;-81
2021/06/12 12:29:18;;;;;;;1.42;1.33;;;26.20;92.70;;;;;;5077788;28;20424;-81
2021/06/12 12:31:45;;;;;;;2.08;1.20;;;26.20;92.60;;;;;;5069828;28;20032;-80
2021/06/12 12:34:12;;;;;;;1.92;1.38;;;26.20;92.60;;;;;;5094641;28;20020;-81
2021/06/12 12:36:49;;;;;;;1.30;1.20;;;26.20;92.60;;;;;;5096042;28;20028;-82
2021/06/12 12:39:15;;;;;;;2.22;1.35;;;26.20;92.60;;;;;;5096109;28;20028;-81
2021/06/12 12:42:00;;;;;;;2.75;1.50;;;26.30;92.60;;;;;;5077858;28;20535;-81
2021/06/12 12:44:26;;;;;;;1.08;0.98;;;26.30;92.60;;;;;;5094613;28;20077;-82
2021/06/12 12:46:53;;;;;;;2.15;1.30;;;26.20;92.70;;;;;;5094465;28;20042;-82
2021/06/12 12:49:22;;;;;;;2.25;1.23;;;26.20;92.80;;;;;;5094329;28;20031;-81